DZH2010 LPPD-DAAG
Flight info
| Callsign | DZH2010 |
|---|---|
| Flight time | N/A |
| Altitude | 33000 |
| Route | BEKUN DCT KOMUT/N0399F240 UM744 BUSEN/N0389F230 UM744 LASIB/N0443F350 M744 CARBO UM744 MOS UA411 ALR G26 ZEM |
| Aircraft | A321/M-SDE3FGHIRWY/LB1 |
Departure
| Time | N/A |
|---|---|
| Airport | João Paulo II Airport (LPPD) |
Arrival
| Time | 2026-05-04 17:41 |
|---|---|
| Airport | Houari Boumediene Airport (DAAG) |
| Time | Latitude | Longitude | Altitude | Speed | Heading |
|---|---|---|---|---|---|
| 2026-05-04 16:20 | 38.42040 | -9.16918 | 35100 ft | 510 kts | 108° |
| 2026-05-04 16:20 | 38.40022 | -9.08097 | 35093 ft | 520 kts | 108° |
| 2026-05-04 16:22 | 38.34901 | -8.85948 | 35079 ft | 523 kts | 108° |
| 2026-05-04 16:23 | 38.28717 | -8.59412 | 35066 ft | 523 kts | 108° |
| 2026-05-04 16:25 | 38.22442 | -8.32813 | 35079 ft | 523 kts | 109° |
| 2026-05-04 16:26 | 38.15056 | -8.01897 | 35072 ft | 521 kts | 109° |
| 2026-05-04 16:28 | 38.11171 | -7.79419 | 35067 ft | 523 kts | 100° |
| 2026-05-04 16:29 | 38.07059 | -7.47498 | 35015 ft | 524 kts | 100° |
| 2026-05-04 16:31 | 38.04072 | -7.24674 | 35021 ft | 525 kts | 101° |
| 2026-05-04 16:32 | 37.97234 | -6.98852 | 35001 ft | 515 kts | 123° |
| 2026-05-04 16:33 | 37.90327 | -6.83008 | 35029 ft | 516 kts | 123° |
| 2026-05-04 16:34 | 37.85110 | -6.71092 | 35026 ft | 516 kts | 123° |
| 2026-05-04 16:35 | 37.74618 | -6.47343 | 35000 ft | 516 kts | 123° |
| 2026-05-04 16:36 | 37.69357 | -6.35466 | 35015 ft | 516 kts | 123° |
| 2026-05-04 16:37 | 37.64090 | -6.23623 | 35019 ft | 515 kts | 124° |
| 2026-05-04 16:38 | 37.57039 | -6.07888 | 35016 ft | 515 kts | 124° |
| 2026-05-04 16:39 | 37.48208 | -5.88269 | 34994 ft | 515 kts | 124° |
| 2026-05-04 16:40 | 37.41126 | -5.72615 | 34997 ft | 515 kts | 124° |
| 2026-05-04 16:41 | 37.32341 | -5.53016 | 34983 ft | 515 kts | 124° |
| 2026-05-04 16:43 | 37.23539 | -5.33509 | 35004 ft | 515 kts | 125° |
| 2026-05-04 16:43 | 37.18799 | -5.23082 | 35005 ft | 515 kts | 125° |
| 2026-05-04 16:45 | 37.08171 | -4.99756 | 34977 ft | 515 kts | 126° |
| 2026-05-04 16:46 | 36.99591 | -4.80030 | 34989 ft | 517 kts | 123° |
| 2026-05-04 16:47 | 36.92973 | -4.64082 | 34984 ft | 516 kts | 124° |
| 2026-05-04 16:48 | 36.86225 | -4.48257 | 34976 ft | 518 kts | 125° |
| 2026-05-04 16:49 | 36.80474 | -4.31722 | 34980 ft | 531 kts | 107° |
| 2026-05-04 16:50 | 36.77216 | -4.13822 | 34975 ft | 530 kts | 108° |
| 2026-05-04 16:51 | 36.74698 | -4.00333 | 34983 ft | 531 kts | 108° |
| 2026-05-04 16:52 | 36.71371 | -3.82459 | 34995 ft | 531 kts | 108° |
| 2026-05-04 16:53 | 36.68831 | -3.68941 | 34945 ft | 532 kts | 108° |
| 2026-05-04 16:54 | 36.65462 | -3.51079 | 34974 ft | 532 kts | 108° |
| 2026-05-04 16:55 | 36.60333 | -3.24248 | 34986 ft | 531 kts | 108° |
| 2026-05-04 16:56 | 36.56007 | -3.01946 | 34965 ft | 530 kts | 109° |
| 2026-05-04 16:57 | 36.53400 | -2.88607 | 34975 ft | 530 kts | 109° |
| 2026-05-04 16:58 | 36.49898 | -2.70810 | 34977 ft | 529 kts | 109° |
| 2026-05-04 17:00 | 36.44602 | -2.44228 | 34945 ft | 528 kts | 110° |
| 2026-05-04 17:01 | 36.40152 | -2.22097 | 34950 ft | 528 kts | 110° |
| 2026-05-04 17:02 | 36.36577 | -2.04458 | 34960 ft | 527 kts | 110° |
| 2026-05-04 17:03 | 36.33864 | -1.91240 | 34967 ft | 527 kts | 110° |
| 2026-05-04 17:03 | 36.31157 | -1.78046 | 34987 ft | 526 kts | 110° |
| 2026-05-04 17:04 | 36.27516 | -1.60467 | 34984 ft | 526 kts | 110° |
| 2026-05-04 17:05 | 36.23850 | -1.42977 | 34960 ft | 525 kts | 110° |
| 2026-05-04 17:06 | 36.21103 | -1.29850 | 34989 ft | 525 kts | 110° |
| 2026-05-04 17:07 | 36.18647 | -1.18226 | 34997 ft | 524 kts | 110° |
| 2026-05-04 17:07 | 36.16481 | -1.08053 | 34993 ft | 523 kts | 110° |
| 2026-05-04 17:08 | 36.13694 | -0.95005 | 34998 ft | 523 kts | 110° |
| 2026-05-04 17:09 | 36.11829 | -0.86311 | 35002 ft | 523 kts | 110° |
| 2026-05-04 17:09 | 36.09951 | -0.77621 | 35002 ft | 523 kts | 110° |
| 2026-05-04 17:10 | 36.05257 | -0.55932 | 35008 ft | 522 kts | 110° |
| 2026-05-04 17:11 | 36.03365 | -0.47280 | 35010 ft | 522 kts | 110° |
| 2026-05-04 17:12 | 36.00521 | -0.34321 | 35006 ft | 521 kts | 110° |
| 2026-05-04 17:13 | 35.95754 | -0.12750 | 35005 ft | 521 kts | 110° |
| 2026-05-04 17:14 | 35.91915 | 0.04500 | 35007 ft | 522 kts | 109° |
| 2026-05-04 17:14 | 35.91242 | 0.13485 | 35017 ft | 532 kts | 87° |
| 2026-05-04 17:15 | 35.91805 | 0.18004 | 35019 ft | 534 kts | 77° |
| 2026-05-04 17:15 | 35.94404 | 0.26569 | 35014 ft | 534 kts | 66° |
| 2026-05-04 17:16 | 35.97332 | 0.34980 | 35012 ft | 534 kts | 66° |
| 2026-05-04 17:16 | 36.01658 | 0.47519 | 35007 ft | 520 kts | 66° |
| 2026-05-04 17:17 | 36.03091 | 0.51657 | 35012 ft | 516 kts | 66° |
| 2026-05-04 17:18 | 36.08683 | 0.67865 | 35011 ft | 514 kts | 66° |
| 2026-05-04 17:18 | 36.11505 | 0.76076 | 34044 ft | 521 kts | 67° |
| 2026-05-04 17:19 | 36.14326 | 0.84318 | 32523 ft | 517 kts | 66° |
| 2026-05-04 17:19 | 36.17106 | 0.92484 | 30534 ft | 520 kts | 66° |
| 2026-05-04 17:20 | 36.19865 | 1.00585 | 29066 ft | 502 kts | 66° |
| 2026-05-04 17:20 | 36.22535 | 1.08435 | 27401 ft | 489 kts | 67° |
| 2026-05-04 17:20 | 36.23845 | 1.12304 | 26636 ft | 483 kts | 67° |
| 2026-05-04 17:21 | 36.26388 | 1.19830 | 25528 ft | 462 kts | 67° |
| 2026-05-04 17:21 | 36.28811 | 1.27009 | 24530 ft | 442 kts | 68° |
| 2026-05-04 17:22 | 36.29985 | 1.30499 | 24032 ft | 434 kts | 68° |
| 2026-05-04 17:22 | 36.31138 | 1.33925 | 23545 ft | 426 kts | 68° |
| 2026-05-04 17:23 | 36.34454 | 1.43784 | 22077 ft | 405 kts | 68° |
| 2026-05-04 17:23 | 36.35532 | 1.47009 | 21591 ft | 405 kts | 68° |
| 2026-05-04 17:23 | 36.37688 | 1.53433 | 20710 ft | 401 kts | 67° |
| 2026-05-04 17:24 | 36.38782 | 1.56612 | 20290 ft | 399 kts | 66° |
| 2026-05-04 17:24 | 36.42041 | 1.66033 | 19027 ft | 395 kts | 66° |
| 2026-05-04 17:25 | 36.43122 | 1.69180 | 18603 ft | 395 kts | 66° |
| 2026-05-04 17:25 | 36.45259 | 1.75422 | 17721 ft | 391 kts | 67° |
| 2026-05-04 17:26 | 36.47373 | 1.81612 | 16905 ft | 387 kts | 67° |
| 2026-05-04 17:26 | 36.50477 | 1.90757 | 15688 ft | 382 kts | 67° |
| 2026-05-04 17:27 | 36.52189 | 1.95803 | 15026 ft | 375 kts | 67° |
| 2026-05-04 17:27 | 36.54199 | 2.01726 | 14223 ft | 373 kts | 67° |
| 2026-05-04 17:28 | 36.56530 | 2.08608 | 13249 ft | 369 kts | 68° |
| 2026-05-04 17:29 | 36.59469 | 2.17320 | 12019 ft | 364 kts | 68° |
| 2026-05-04 17:29 | 36.61012 | 2.25357 | 10884 ft | 357 kts | 83° |
| 2026-05-04 17:30 | 36.62307 | 2.34391 | 10033 ft | 339 kts | 83° |
| 2026-05-04 17:31 | 36.63116 | 2.40014 | 9456 ft | 326 kts | 83° |
| 2026-05-04 17:31 | 36.64270 | 2.48142 | 8519 ft | 315 kts | 83° |
| 2026-05-04 17:32 | 36.65018 | 2.53456 | 7749 ft | 308 kts | 83° |
| 2026-05-04 17:33 | 36.66103 | 2.61182 | 6629 ft | 296 kts | 83° |
| 2026-05-04 17:33 | 36.66456 | 2.63696 | 6248 ft | 293 kts | 83° |
| 2026-05-04 17:34 | 36.67490 | 2.71070 | 5142 ft | 282 kts | 83° |
| 2026-05-04 17:34 | 36.67824 | 2.73467 | 4759 ft | 278 kts | 83° |
| 2026-05-04 17:35 | 36.68885 | 2.80447 | 3981 ft | 271 kts | 72° |
| 2026-05-04 17:35 | 36.69876 | 2.84790 | 3989 ft | 245 kts | 89° |
| 2026-05-04 17:35 | 36.69889 | 2.86899 | 3985 ft | 242 kts | 95° |
| 2026-05-04 17:36 | 36.69827 | 2.89003 | 3998 ft | 242 kts | 95° |
| 2026-05-04 17:36 | 36.69778 | 2.91034 | 4005 ft | 229 kts | 94° |
| 2026-05-04 17:36 | 36.69736 | 2.93006 | 3775 ft | 221 kts | 92° |
| 2026-05-04 17:36 | 36.69696 | 2.94916 | 3509 ft | 220 kts | 93° |
| 2026-05-04 17:37 | 36.69656 | 2.96779 | 3243 ft | 207 kts | 93° |
| 2026-05-04 17:37 | 36.69620 | 2.98481 | 2978 ft | 192 kts | 91° |
| 2026-05-04 17:37 | 36.69585 | 3.00079 | 2754 ft | 177 kts | 90° |
| 2026-05-04 17:37 | 36.69552 | 3.01564 | 2516 ft | 162 kts | 89° |
| 2026-05-04 17:38 | 36.69523 | 3.02915 | 2303 ft | 155 kts | 89° |
| 2026-05-04 17:38 | 36.69494 | 3.04240 | 2101 ft | 153 kts | 89° |
| 2026-05-04 17:38 | 36.69465 | 3.05561 | 1901 ft | 152 kts | 89° |
| 2026-05-04 17:38 | 36.69436 | 3.06875 | 1715 ft | 152 kts | 89° |
| 2026-05-04 17:39 | 36.69378 | 3.09490 | 1312 ft | 151 kts | 89° |
| 2026-05-04 17:39 | 36.69349 | 3.10788 | 1114 ft | 150 kts | 91° |
| 2026-05-04 17:39 | 36.69319 | 3.12083 | 909 ft | 149 kts | 90° |
| 2026-05-04 17:40 | 36.69296 | 3.13364 | 708 ft | 147 kts | 90° |
| 2026-05-04 17:40 | 36.69257 | 3.14634 | 522 ft | 146 kts | 92° |
| 2026-05-04 17:40 | 36.69227 | 3.15893 | 319 ft | 145 kts | 89° |
| 2026-05-04 17:40 | 36.69210 | 3.17133 | 118 ft | 142 kts | 92° |
| 2026-05-04 17:41 | 36.69185 | 3.18300 | 76 ft | 121 kts | 92° |
| 2026-05-04 17:41 | 36.69160 | 3.19089 | 75 ft | 66 kts | 91° |
| 2026-05-04 17:41 | 36.69150 | 3.19492 | 70 ft | 27 kts | 92° |
| 2026-05-04 17:41 | 36.69156 | 3.19702 | 72 ft | 20 kts | 76° |
| 2026-05-04 17:42 | 36.69205 | 3.19858 | 68 ft | 19 kts | 68° |
| 2026-05-04 17:42 | 36.69243 | 3.19966 | 68 ft | 9 kts | 63° |
| 2026-05-04 17:42 | 36.69281 | 3.20055 | 67 ft | 16 kts | 62° |
| 2026-05-04 17:42 | 36.69299 | 3.20196 | 71 ft | 15 kts | 93° |
| 2026-05-04 17:43 | 36.69341 | 3.20286 | 65 ft | 13 kts | 19° |
| 2026-05-04 17:43 | 36.69427 | 3.20276 | 60 ft | 11 kts | 327° |
| 2026-05-04 17:43 | 36.69449 | 3.20198 | 70 ft | 9 kts | 270° |
| 2026-05-04 17:43 | 36.69450 | 3.20122 | 65 ft | 8 kts | 270° |
| 2026-05-04 17:44 | 36.69451 | 3.20058 | 70 ft | 7 kts | 272° |
| 2026-05-04 17:44 | 36.69462 | 3.20004 | 67 ft | 6 kts | 307° |
| 2026-05-04 17:44 | 36.69498 | 3.19983 | 67 ft | 6 kts | 353° |
| 2026-05-04 17:44 | 36.69542 | 3.19984 | 67 ft | 7 kts | 1° |
| 2026-05-04 17:45 | 36.69589 | 3.19985 | 70 ft | 7 kts | 1° |
| 2026-05-04 17:45 | 36.69644 | 3.19987 | 70 ft | 8 kts | 1° |
| 2026-05-04 17:45 | 36.69695 | 3.19989 | 70 ft | 7 kts | 2° |
| 2026-05-04 17:45 | 36.69741 | 3.20000 | 70 ft | 7 kts | 29° |
| 2026-05-04 17:46 | 36.69756 | 3.20056 | 63 ft | 7 kts | 86° |
| 2026-05-04 17:46 | 36.69756 | 3.20093 | 63 ft | 0 kts | 90° |
| 2026-05-04 17:46 | 36.69756 | 3.20095 | 64 ft | 0 kts | 89° |
| 2026-05-04 17:46 | 36.69756 | 3.20099 | 67 ft | 1 kts | 89° |
| 2026-05-04 17:47 | 36.69756 | 3.20105 | 66 ft | 2 kts | 89° |
| 2026-05-04 17:47 | 36.69756 | 3.20120 | 64 ft | 1 kts | 89° |
| 2026-05-04 17:47 | 36.69756 | 3.20125 | 64 ft | 0 kts | 89° |